createdAt,value
2018-10-16T00:01:27.350Z,16.03
2018-10-16T00:03:56.589Z,15.87
2018-10-16T00:06:25.685Z,15.84
2018-10-16T00:08:54.732Z,15.73
2018-10-16T00:11:23.926Z,15.95
2018-10-16T00:13:53.013Z,15.91
2018-10-16T00:16:22.246Z,15.96
2018-10-16T00:18:51.299Z,15.89
2018-10-16T00:21:20.445Z,15.87
2018-10-16T00:23:49.593Z,15.61
2018-10-16T00:26:18.720Z,15.91
2018-10-16T00:28:47.819Z,15.68
2018-10-16T00:31:19.899Z,15.80
2018-10-16T00:33:48.991Z,15.80
2018-10-16T00:36:18.108Z,15.90
2018-10-16T00:38:47.232Z,15.75
2018-10-16T00:41:16.356Z,15.78
2018-10-16T00:43:45.510Z,15.42
2018-10-16T00:46:14.750Z,15.66
2018-10-16T00:48:43.901Z,15.67
2018-10-16T00:51:13.046Z,15.75
2018-10-16T00:53:42.174Z,15.69
2018-10-16T00:56:11.337Z,15.93
2018-10-16T00:58:40.388Z,15.63
2018-10-16T01:01:09.616Z,15.73
2018-10-16T01:03:38.747Z,15.61
2018-10-16T01:06:07.884Z,15.61
2018-10-16T01:08:36.993Z,15.63
2018-10-16T01:11:10.185Z,15.65
2018-10-16T01:13:39.602Z,15.52
2018-10-16T01:16:08.756Z,15.45
2018-10-16T01:18:37.860Z,15.14
2018-10-16T01:21:07.370Z,14.92
2018-10-16T01:23:36.575Z,14.89
2018-10-16T01:26:05.951Z,15.09
2018-10-16T01:28:35.212Z,15.31
2018-10-16T01:31:04.345Z,15.36
2018-10-16T01:33:33.513Z,15.09
2018-10-16T01:36:02.635Z,14.94
2018-10-16T01:38:31.765Z,14.61
2018-10-16T01:41:08.374Z,14.84
2018-10-16T01:43:37.948Z,15.05
2018-10-16T01:46:07.031Z,14.96
2018-10-16T01:48:36.253Z,15.00
2018-10-16T01:51:05.434Z,14.94
2018-10-16T01:53:41.171Z,14.89
2018-10-16T01:56:10.277Z,14.89
2018-10-16T01:58:39.510Z,14.73
2018-10-16T02:01:08.645Z,14.78
2018-10-16T02:06:30.996Z,14.90
2018-10-16T02:09:00.184Z,14.63
2018-10-16T02:11:29.304Z,14.78
2018-10-16T02:13:58.405Z,14.65
2018-10-16T02:16:27.500Z,14.47
2018-10-16T02:18:56.657Z,14.67
2018-10-16T02:21:25.840Z,14.71
2018-10-16T02:23:55.077Z,14.81
2018-10-16T02:26:24.193Z,14.71
2018-10-16T02:28:53.322Z,14.48
2018-10-16T02:31:22.460Z,14.59
2018-10-16T02:33:51.609Z,14.52
2018-10-16T02:36:20.941Z,14.64
2018-10-16T02:38:50.129Z,14.67
2018-10-16T02:41:19.219Z,14.73
2018-10-16T02:43:48.438Z,14.71
2018-10-16T02:46:17.587Z,14.62
2018-10-16T02:48:46.783Z,14.38
2018-10-16T02:51:15.898Z,14.08
2018-10-16T02:53:45.332Z,14.15
2018-10-16T02:56:14.474Z,13.97
2018-10-16T02:58:44.143Z,13.91
2018-10-16T03:01:13.565Z,14.04
2018-10-16T03:03:43.113Z,13.95
2018-10-16T03:06:12.873Z,13.85
2018-10-16T03:08:42.053Z,13.83
2018-10-16T03:11:11.146Z,13.87
2018-10-16T03:13:40.259Z,13.97
2018-10-16T03:16:09.476Z,13.22
2018-10-16T03:18:38.577Z,13.32
2018-10-16T03:21:07.750Z,13.44
2018-10-16T03:23:36.885Z,13.11
2018-10-16T03:26:06.065Z,12.99
2018-10-16T03:28:35.266Z,12.73
2018-10-16T03:31:04.432Z,13.13
2018-10-16T03:33:33.585Z,12.52
2018-10-16T03:36:02.742Z,12.43
2018-10-16T03:38:31.861Z,12.51
2018-10-16T03:41:01.045Z,12.70
2018-10-16T03:43:30.180Z,12.36
2018-10-16T03:45:59.369Z,12.23
2018-10-16T03:48:28.462Z,12.40
2018-10-16T03:50:57.635Z,12.25
2018-10-16T03:53:26.792Z,12.78
2018-10-16T03:55:55.905Z,13.06
2018-10-16T03:58:25.025Z,13.16
2018-10-16T04:00:54.142Z,13.08
2018-10-16T04:03:23.270Z,13.14
2018-10-16T04:05:52.477Z,13.33
2018-10-16T04:08:21.573Z,13.52
2018-10-16T04:10:50.676Z,13.26
2018-10-16T04:13:19.818Z,13.28
2018-10-16T04:15:48.996Z,13.20
2018-10-16T04:18:18.118Z,13.31
2018-10-16T04:20:47.314Z,12.93
2018-10-16T04:23:16.379Z,12.95
2018-10-16T04:25:45.513Z,12.78
2018-10-16T04:28:14.609Z,12.85
2018-10-16T04:30:43.753Z,12.84
2018-10-16T04:33:12.881Z,12.90
2018-10-16T04:35:41.992Z,13.03
2018-10-16T04:38:11.189Z,12.68
2018-10-16T04:40:40.237Z,12.83
2018-10-16T04:43:09.364Z,13.10
2018-10-16T04:45:38.490Z,13.17
2018-10-16T04:48:07.690Z,13.18
2018-10-16T04:50:36.767Z,12.94
2018-10-16T04:53:06.356Z,13.11
2018-10-16T04:55:35.520Z,13.17
2018-10-16T04:58:04.693Z,13.25
2018-10-16T05:00:33.816Z,12.95
2018-10-16T05:03:03.325Z,13.10
2018-10-16T05:05:32.486Z,12.89
2018-10-16T05:08:01.609Z,13.18
2018-10-16T05:10:30.761Z,13.16
2018-10-16T05:13:00.070Z,13.05
2018-10-16T05:15:31.416Z,13.06
2018-10-16T05:18:00.566Z,13.05
2018-10-16T05:20:29.677Z,12.88
2018-10-16T05:22:59.971Z,13.06
2018-10-16T05:25:30.072Z,12.92
2018-10-16T05:27:59.395Z,12.89
2018-10-16T05:30:28.463Z,12.69
2018-10-16T05:32:57.713Z,12.68
2018-10-16T05:35:26.817Z,12.72
2018-10-16T05:37:55.990Z,12.42
2018-10-16T05:40:25.157Z,12.50
2018-10-16T05:42:54.287Z,12.43
2018-10-16T05:45:23.843Z,12.49
2018-10-16T05:47:53.111Z,12.37
2018-10-16T05:50:22.399Z,12.52
2018-10-16T05:52:51.685Z,12.53
2018-10-16T05:55:20.991Z,12.49
2018-10-16T05:57:50.160Z,12.49
2018-10-16T06:00:29.959Z,12.46
2018-10-16T06:02:59.141Z,12.00
2018-10-16T06:05:28.371Z,12.03
2018-10-16T06:07:57.576Z,11.38
2018-10-16T06:10:26.826Z,11.89
2018-10-16T06:12:56.141Z,12.07
2018-10-16T06:15:25.350Z,12.01
2018-10-16T06:17:54.530Z,11.86
2018-10-16T06:20:23.836Z,11.75
2018-10-16T06:22:52.984Z,12.17
2018-10-16T06:25:22.297Z,12.20
2018-10-16T06:27:51.489Z,12.02
2018-10-16T06:30:20.754Z,11.96
2018-10-16T06:32:50.737Z,12.03
2018-10-16T06:35:19.914Z,11.97
2018-10-16T06:37:49.156Z,11.84
2018-10-16T06:40:18.352Z,11.65
2018-10-16T06:42:47.744Z,11.72
2018-10-16T06:45:17.005Z,12.32
2018-10-16T06:47:46.201Z,12.92
2018-10-16T06:50:15.406Z,13.19
2018-10-16T06:52:44.963Z,13.77
2018-10-16T06:55:14.236Z,14.00
2018-10-16T06:57:43.546Z,14.01
2018-10-16T07:00:12.722Z,14.40
2018-10-16T07:02:42.007Z,14.51
2018-10-16T07:05:11.489Z,14.71
2018-10-16T07:07:40.718Z,14.83
2018-10-16T07:10:10.525Z,14.76
2018-10-16T07:12:39.925Z,15.06
2018-10-16T07:15:09.620Z,15.24
2018-10-16T07:17:38.933Z,15.58
2018-10-16T07:20:09.225Z,15.68
2018-10-16T07:22:38.555Z,16.24
2018-10-16T07:25:08.885Z,16.26
2018-10-16T07:27:39.029Z,16.40
2018-10-16T07:30:11.033Z,16.72
2018-10-16T07:32:40.177Z,16.36
2018-10-16T07:35:10.599Z,15.81
2018-10-16T07:37:40.480Z,16.48
2018-10-16T07:40:10.811Z,16.88
2018-10-16T07:42:40.454Z,17.37
2018-10-16T07:45:09.789Z,17.80
2018-10-16T07:47:39.254Z,18.16
2018-10-16T07:50:10.486Z,18.59
2018-10-16T07:52:39.839Z,18.41
2018-10-16T07:55:14.560Z,18.47
2018-10-16T07:57:44.244Z,18.97
2018-10-16T08:00:13.889Z,19.25
2018-10-16T08:02:44.054Z,19.65
2018-10-16T08:05:13.427Z,19.33
2018-10-16T08:07:42.907Z,19.37
2018-10-16T08:10:13.695Z,19.56
2018-10-16T08:12:43.646Z,18.91
2018-10-16T08:15:12.912Z,17.21
2018-10-16T08:17:42.468Z,18.00
2018-10-16T08:20:11.657Z,17.97
2018-10-16T08:22:40.858Z,17.86
2018-10-16T08:25:09.981Z,17.47
2018-10-16T08:27:39.236Z,17.25
2018-10-16T08:30:09.394Z,17.18
2018-10-16T08:32:38.548Z,16.54
2018-10-16T08:35:07.767Z,17.73
2018-10-16T08:39:52.666Z,18.09
2018-10-16T08:43:37.370Z,17.62
2018-10-16T08:46:17.432Z,18.55
2018-10-16T08:48:57.643Z,18.56
2018-10-16T08:51:32.145Z,18.67
2018-10-16T08:54:01.361Z,19.47
2018-10-16T08:56:30.992Z,19.75
2018-10-16T08:59:00.717Z,20.38
2018-10-16T09:01:30.287Z,20.30
2018-10-16T09:04:00.012Z,20.30
2018-10-16T09:06:29.329Z,20.48
2018-10-16T09:08:58.588Z,20.85
2018-10-16T09:11:27.741Z,21.17
2018-10-16T09:13:57.005Z,21.21
2018-10-16T09:16:26.225Z,21.61
2018-10-16T09:18:55.415Z,20.82
2018-10-16T09:21:24.678Z,21.27
2018-10-16T09:23:53.888Z,20.25
2018-10-16T09:26:23.188Z,20.07
2018-10-16T09:28:52.380Z,19.27
2018-10-16T09:31:21.482Z,20.65
2018-10-16T09:33:50.687Z,20.95
2018-10-16T09:36:19.901Z,20.47
2018-10-16T09:38:49.198Z,21.60
2018-10-16T09:41:18.673Z,22.17
2018-10-16T09:43:47.929Z,22.34
2018-10-16T09:46:17.181Z,22.68
2018-10-16T09:48:46.392Z,23.05
2018-10-16T09:51:15.596Z,22.89
2018-10-16T09:53:44.812Z,23.15
2018-10-16T09:56:14.033Z,22.69
2018-10-16T09:58:43.209Z,22.73
2018-10-16T10:01:17.434Z,23.78
2018-10-16T10:03:46.621Z,23.77
2018-10-16T10:06:15.887Z,23.61
2018-10-16T10:08:45.078Z,23.03
2018-10-16T10:11:14.459Z,22.77
2018-10-16T10:13:43.664Z,23.70
2018-10-16T10:16:12.926Z,23.90
2018-10-16T10:18:42.262Z,23.23
2018-10-16T10:21:11.521Z,23.93
2018-10-16T10:23:40.755Z,24.18
2018-10-16T10:26:10.043Z,23.74
2018-10-16T10:28:39.284Z,24.67
2018-10-16T10:31:08.657Z,24.79
2018-10-16T10:33:37.978Z,24.98
2018-10-16T10:36:07.181Z,24.73
2018-10-16T10:38:36.421Z,25.40
2018-10-16T10:41:05.727Z,25.53
2018-10-16T10:43:34.975Z,26.09
2018-10-16T10:46:04.267Z,26.04
2018-10-16T10:48:33.373Z,25.46
2018-10-16T10:51:02.795Z,26.29
2018-10-16T10:53:31.790Z,26.46
2018-10-16T10:56:00.963Z,26.17
2018-10-16T10:58:30.249Z,27.01
2018-10-16T11:00:59.389Z,25.83
2018-10-16T11:03:28.722Z,26.44
2018-10-16T11:05:57.795Z,25.87
2018-10-16T11:08:26.922Z,26.01
2018-10-16T11:10:56.163Z,27.20
2018-10-16T11:13:25.411Z,27.30
2018-10-16T11:15:54.642Z,27.37
2018-10-16T11:18:23.861Z,27.33
2018-10-16T11:20:53.211Z,27.51
2018-10-16T11:23:22.361Z,26.50
2018-10-16T11:25:51.560Z,26.60
2018-10-16T11:28:20.716Z,26.79
2018-10-16T11:30:49.930Z,26.61
2018-10-16T11:33:19.058Z,27.43
2018-10-16T11:35:48.297Z,28.10
2018-10-16T11:38:17.589Z,28.45
2018-10-16T11:40:46.733Z,28.88
2018-10-16T11:43:16.092Z,29.14
2018-10-16T11:45:45.539Z,28.94
2018-10-16T11:48:14.856Z,29.30
2018-10-16T11:50:44.082Z,29.13
2018-10-16T11:53:14.113Z,27.92
2018-10-16T11:55:43.298Z,29.52
2018-10-16T11:58:12.660Z,29.22
2018-10-16T12:00:41.866Z,30.04
2018-10-16T12:03:11.092Z,30.26
2018-10-16T12:05:40.182Z,30.82
2018-10-16T12:08:09.363Z,29.89
2018-10-16T12:10:38.579Z,30.86
2018-10-16T12:13:07.897Z,30.73
2018-10-16T12:15:37.102Z,31.53
2018-10-16T12:18:13.095Z,31.06
2018-10-16T12:20:48.061Z,29.74
2018-10-16T12:23:17.390Z,30.44
2018-10-16T12:25:46.522Z,31.15
2018-10-16T12:28:15.708Z,31.58
2018-10-16T12:30:44.875Z,32.09
2018-10-16T12:33:14.229Z,30.20
2018-10-16T12:35:43.333Z,30.99
2018-10-16T12:38:12.730Z,30.99
2018-10-16T12:40:42.030Z,31.31
2018-10-16T12:43:11.448Z,31.72
2018-10-16T12:45:40.598Z,32.46
2018-10-16T12:48:09.845Z,32.73
2018-10-16T12:50:39.065Z,33.36
2018-10-16T12:53:08.882Z,31.95
2018-10-16T12:55:38.482Z,31.86
2018-10-16T12:58:07.910Z,33.32
2018-10-16T13:00:37.152Z,33.12
2018-10-16T13:03:06.467Z,32.98
2018-10-16T13:05:35.715Z,33.41
2018-10-16T13:08:04.986Z,33.45
2018-10-16T13:10:34.181Z,33.28
2018-10-16T13:13:03.317Z,31.38
2018-10-16T13:15:32.885Z,32.25
2018-10-16T13:18:02.313Z,31.90
2018-10-16T13:20:31.856Z,30.74
2018-10-16T13:23:01.432Z,31.57
2018-10-16T13:25:30.895Z,32.44
2018-10-16T13:28:00.310Z,33.24
2018-10-16T13:30:29.906Z,32.84
2018-10-16T13:32:59.359Z,33.73
2018-10-16T13:35:29.076Z,33.44
2018-10-16T13:37:58.455Z,33.70
2018-10-16T13:40:27.990Z,33.17
2018-10-16T13:42:57.457Z,33.60
2018-10-16T13:45:26.677Z,32.52
2018-10-16T13:47:55.930Z,32.22
2018-10-16T13:50:25.137Z,34.38
2018-10-16T13:52:54.396Z,35.13
2018-10-16T13:55:23.592Z,35.87
2018-10-16T13:57:52.836Z,35.99
2018-10-16T14:00:22.280Z,36.60
2018-10-16T14:02:52.766Z,34.49
2018-10-16T14:05:22.325Z,34.55
2018-10-16T14:07:51.564Z,33.20
2018-10-16T14:10:20.839Z,34.76
2018-10-16T14:12:50.170Z,35.23
2018-10-16T14:15:19.804Z,34.04
2018-10-16T14:17:49.013Z,35.17
2018-10-16T14:20:18.268Z,36.29
2018-10-16T14:22:47.494Z,36.98
2018-10-16T14:25:17.012Z,36.68
2018-10-16T14:27:46.295Z,36.52
2018-10-16T14:30:16.533Z,37.06
2018-10-16T14:32:45.694Z,36.85
2018-10-16T14:35:15.321Z,35.52
2018-10-16T14:37:44.616Z,33.97
2018-10-16T14:40:15.111Z,32.37
2018-10-16T14:42:44.754Z,35.30
2018-10-16T14:45:14.574Z,35.01
2018-10-16T14:47:43.749Z,33.44
2018-10-16T14:50:14.195Z,32.19
2018-10-16T14:52:43.550Z,31.89
2018-10-16T14:55:12.763Z,31.98
2018-10-16T14:57:42.148Z,32.10
2018-10-16T15:00:12.826Z,31.50
2018-10-16T15:02:42.174Z,30.94
2018-10-16T15:05:12.410Z,31.22
2018-10-16T15:07:41.762Z,31.56
2018-10-16T15:10:11.369Z,31.23
2018-10-16T15:12:40.786Z,30.26
2018-10-16T15:15:10.290Z,29.78
2018-10-16T15:17:39.547Z,30.06
2018-10-16T15:20:10.281Z,29.86
2018-10-16T15:22:39.559Z,29.80
2018-10-16T15:25:09.656Z,29.59
2018-10-16T15:27:38.905Z,29.39
2018-10-16T15:30:09.381Z,29.00
2018-10-16T15:32:38.711Z,28.71
2018-10-16T15:35:09.265Z,28.87
2018-10-16T15:37:38.517Z,29.09
2018-10-16T15:40:09.112Z,28.84
2018-10-16T15:42:38.363Z,28.55
2018-10-16T15:45:09.271Z,28.10
2018-10-16T15:47:38.683Z,27.79
2018-10-16T15:50:08.408Z,27.66
2018-10-16T15:52:37.621Z,27.44
2018-10-16T15:55:07.810Z,27.27
2018-10-16T15:57:37.146Z,27.47
2018-10-16T16:00:09.640Z,27.16
2018-10-16T16:02:38.954Z,27.50
2018-10-16T16:05:08.177Z,27.16
2018-10-16T16:07:37.434Z,26.15
2018-10-16T16:10:08.253Z,25.99
2018-10-16T16:12:37.852Z,26.13
2018-10-16T16:15:08.497Z,25.70
2018-10-16T16:17:38.039Z,25.33
2018-10-16T16:20:08.670Z,24.90
2018-10-16T16:22:37.890Z,24.82
2018-10-16T16:25:08.573Z,25.20
2018-10-16T16:27:39.610Z,25.26
2018-10-16T16:30:10.814Z,25.40
2018-10-16T16:32:40.190Z,25.01
2018-10-16T16:35:09.487Z,24.73
2018-10-16T16:37:38.658Z,24.82
2018-10-16T16:40:09.798Z,24.95
2018-10-16T16:42:38.944Z,24.67
2018-10-16T16:45:09.059Z,25.12
2018-10-16T16:47:38.215Z,24.78
2018-10-16T16:50:08.871Z,24.79
2018-10-16T16:52:38.248Z,24.73
2018-10-16T16:55:09.054Z,24.23
2018-10-16T16:57:38.224Z,24.58
2018-10-16T17:00:10.002Z,24.68
2018-10-16T17:02:39.694Z,24.82
2018-10-16T17:05:09.399Z,25.04
2018-10-16T17:07:38.522Z,24.79
2018-10-16T17:10:08.581Z,24.49
2018-10-16T17:12:38.194Z,24.22
2018-10-16T17:15:09.374Z,24.22
2018-10-16T17:17:39.029Z,24.53
2018-10-16T17:20:09.231Z,24.38
2018-10-16T17:22:38.418Z,24.21
2018-10-16T17:25:09.116Z,24.05
2018-10-16T17:27:38.197Z,24.04
2018-10-16T17:30:13.371Z,23.95
2018-10-16T17:32:43.110Z,24.07
2018-10-16T17:35:12.935Z,23.78
2018-10-16T17:37:43.251Z,22.87
2018-10-16T17:40:15.001Z,23.48
2018-10-16T17:42:44.241Z,23.54
2018-10-16T17:45:15.036Z,23.52
2018-10-16T17:47:44.181Z,23.93
2018-10-16T17:50:15.434Z,23.32
2018-10-16T17:52:44.678Z,23.45
2018-10-16T17:55:14.500Z,23.21
2018-10-16T17:57:43.759Z,23.14
2018-10-16T18:00:15.147Z,22.90
2018-10-16T18:02:44.926Z,22.80
2018-10-16T18:05:14.788Z,22.88
2018-10-16T18:07:44.687Z,22.75
2018-10-16T18:10:13.848Z,22.49
2018-10-16T18:12:43.098Z,22.50
2018-10-16T18:15:13.420Z,22.71
2018-10-16T18:17:43.249Z,23.06
2018-10-16T18:20:14.361Z,22.78
2018-10-16T18:22:43.875Z,22.45
2018-10-16T18:25:13.125Z,22.30
2018-10-16T18:27:43.217Z,22.26
2018-10-16T18:30:12.803Z,22.27
2018-10-16T18:32:42.230Z,21.78
2018-10-16T18:35:11.884Z,21.93
2018-10-16T18:37:42.271Z,22.32
2018-10-16T18:40:12.337Z,22.38
2018-10-16T18:42:48.171Z,21.69
2018-10-16T18:45:17.424Z,22.10
2018-10-16T18:47:46.792Z,22.07
2018-10-16T18:50:16.055Z,21.50
2018-10-16T18:52:45.810Z,21.76
2018-10-16T18:55:15.859Z,21.72
2018-10-16T18:57:45.091Z,21.66
2018-10-16T19:00:16.651Z,21.78
2018-10-16T19:02:46.133Z,21.44
2018-10-16T19:05:15.336Z,21.47
2018-10-16T19:07:44.583Z,21.02
2018-10-16T19:10:13.693Z,21.27
2018-10-16T19:12:43.150Z,21.19
2018-10-16T19:15:13.850Z,21.28
2018-10-16T19:17:43.870Z,21.16
2018-10-16T19:20:14.184Z,21.03
2018-10-16T19:22:44.153Z,21.10
2018-10-16T19:25:14.823Z,20.90
2018-10-16T19:27:44.206Z,21.17
2018-10-16T19:30:13.770Z,21.05
2018-10-16T19:32:42.969Z,21.12
2018-10-16T19:35:13.655Z,20.98
2018-10-16T19:37:43.019Z,20.97
2018-10-16T19:40:12.608Z,20.91
2018-10-16T19:42:41.882Z,20.82
2018-10-16T19:45:12.412Z,20.71
2018-10-16T19:47:41.584Z,20.38
2018-10-16T19:50:11.413Z,20.59
2018-10-16T19:52:40.741Z,20.86
2018-10-16T19:55:10.039Z,20.62
2018-10-16T19:57:39.300Z,20.41
2018-10-16T20:00:09.699Z,20.61
2018-10-16T20:02:39.014Z,20.43
2018-10-16T20:05:08.902Z,20.17
2018-10-16T20:07:38.062Z,20.14
2018-10-16T20:10:08.916Z,20.05
2018-10-16T20:12:38.120Z,19.95
2018-10-16T20:15:09.130Z,20.01
2018-10-16T20:17:38.422Z,19.62
2018-10-16T20:20:08.542Z,19.62
2018-10-16T20:22:37.738Z,19.66
2018-10-16T20:25:07.860Z,19.56
2018-10-16T20:27:37.161Z,19.59
2018-10-16T20:30:07.690Z,19.36
2018-10-16T20:32:36.830Z,19.58
2018-10-16T20:35:06.101Z,19.58
2018-10-16T20:37:35.635Z,19.83
2018-10-16T20:40:04.696Z,19.49
2018-10-16T20:42:33.846Z,19.50
2018-10-16T20:45:03.005Z,19.46
2018-10-16T20:47:32.195Z,19.65
2018-10-16T20:50:01.327Z,19.56
2018-10-16T20:52:30.503Z,19.53
2018-10-16T20:54:59.781Z,19.77
2018-10-16T20:57:28.979Z,19.72
2018-10-16T20:59:58.737Z,19.74
2018-10-16T21:02:27.891Z,19.13
2018-10-16T21:05:03.713Z,19.25
2018-10-16T21:07:32.930Z,19.15
2018-10-16T21:10:02.061Z,18.83
2018-10-16T21:12:31.156Z,18.81
2018-10-16T21:15:00.591Z,19.00
2018-10-16T21:17:30.203Z,18.84
2018-10-16T21:19:59.419Z,18.86
2018-10-16T21:22:28.566Z,18.66
2018-10-16T21:24:57.716Z,18.59
2018-10-16T21:27:26.901Z,18.75
2018-10-16T21:29:56.084Z,18.64
2018-10-16T21:32:25.199Z,18.73
2018-10-16T21:34:54.403Z,18.40
2018-10-16T21:37:23.574Z,18.29
2018-10-16T21:39:55.223Z,18.66
2018-10-16T21:42:24.401Z,18.49
2018-10-16T21:44:53.543Z,18.38
2018-10-16T21:47:22.644Z,18.72
2018-10-16T21:49:51.793Z,18.41
2018-10-16T21:52:20.932Z,18.23
2018-10-16T21:54:50.250Z,17.98
2018-10-16T21:57:19.378Z,18.02
2018-10-16T21:59:48.685Z,17.91
2018-10-16T22:02:22.778Z,18.00
2018-10-16T22:04:51.946Z,18.02
2018-10-16T22:07:21.042Z,18.20
2018-10-16T22:09:50.220Z,18.04
2018-10-16T22:12:19.388Z,18.05
2018-10-16T22:14:48.574Z,18.12
2018-10-16T22:17:17.707Z,17.76
2018-10-16T22:19:46.855Z,17.94
2018-10-16T22:22:15.999Z,17.91
2018-10-16T22:24:45.181Z,17.93
2018-10-16T22:27:14.311Z,17.80
2018-10-16T22:29:43.477Z,17.95
2018-10-16T22:32:12.653Z,18.08
2018-10-16T22:34:41.830Z,17.75
2018-10-16T22:37:10.988Z,17.76
2018-10-16T22:39:40.084Z,17.67
2018-10-16T22:42:09.203Z,17.64
2018-10-16T22:44:38.411Z,17.55
2018-10-16T22:47:07.700Z,17.54
2018-10-16T22:49:36.917Z,17.23
2018-10-16T22:52:06.475Z,17.50
2018-10-16T22:54:42.124Z,17.58
2018-10-16T22:57:11.278Z,17.58
2018-10-16T22:59:40.766Z,17.26
2018-10-16T23:02:09.962Z,17.17
2018-10-16T23:04:39.192Z,17.34
2018-10-16T23:07:08.328Z,17.40
2018-10-16T23:09:37.550Z,17.36
2018-10-16T23:12:07.189Z,17.01
2018-10-16T23:14:36.324Z,17.47
2018-10-16T23:17:05.500Z,17.27
2018-10-16T23:19:34.697Z,16.30
2018-10-16T23:22:03.761Z,16.23
2018-10-16T23:24:32.880Z,16.44
2018-10-16T23:27:01.968Z,16.60
2018-10-16T23:29:31.057Z,16.63
2018-10-16T23:32:00.243Z,16.68
2018-10-16T23:34:29.379Z,16.87
2018-10-16T23:36:58.562Z,16.74
2018-10-16T23:39:27.680Z,16.67
2018-10-16T23:41:56.807Z,16.50
2018-10-16T23:44:25.986Z,16.60
2018-10-16T23:46:55.252Z,16.80
2018-10-16T23:52:17.456Z,16.55
2018-10-16T23:54:46.658Z,16.35
2018-10-16T23:57:15.827Z,16.46
2018-10-16T23:59:44.968Z,16.53
